sensor_id;sensor_type;location;lat;lon;timestamp;pressure;altitude;pressure_sealevel;temperature;humidity
55990;BME280;41875;55.806;38.082;2022-10-17T00:00:36;100556.09;;;7.08;53.80
55990;BME280;41875;55.806;38.082;2022-10-17T00:03:05;100555.25;;;7.32;53.17
55990;BME280;41875;55.806;38.082;2022-10-17T00:05:37;100553.41;;;7.21;53.35
55990;BME280;41875;55.806;38.082;2022-10-17T00:08:07;100552.41;;;7.35;52.96
55990;BME280;41875;55.806;38.082;2022-10-17T00:10:35;100552.13;;;7.27;53.43
55990;BME280;41875;55.806;38.082;2022-10-17T00:13:04;100547.16;;;6.98;54.07
55990;BME280;41875;55.806;38.082;2022-10-17T00:15:33;100542.22;;;7.30;53.58
55990;BME280;41875;55.806;38.082;2022-10-17T00:18:03;100540.59;;;7.04;54.02
55990;BME280;41875;55.806;38.082;2022-10-17T00:20:33;100540.56;;;7.16;53.94
55990;BME280;41875;55.806;38.082;2022-10-17T00:23:02;100546.75;;;6.91;54.24
55990;BME280;41875;55.806;38.082;2022-10-17T00:25:30;100534.00;;;6.98;53.84
55990;BME280;41875;55.806;38.082;2022-10-17T00:27:59;100536.72;;;7.09;53.49
55990;BME280;41875;55.806;38.082;2022-10-17T00:30:27;100531.44;;;7.09;53.74
55990;BME280;41875;55.806;38.082;2022-10-17T00:32:56;100524.50;;;7.08;53.55
55990;BME280;41875;55.806;38.082;2022-10-17T00:35:25;100524.16;;;6.76;54.92
55990;BME280;41875;55.806;38.082;2022-10-17T00:37:54;100526.63;;;6.90;54.26
55990;BME280;41875;55.806;38.082;2022-10-17T00:40:23;100527.94;;;7.09;53.90
55990;BME280;41875;55.806;38.082;2022-10-17T00:42:51;100524.03;;;7.14;53.99
55990;BME280;41875;55.806;38.082;2022-10-17T00:45:22;100523.03;;;7.04;54.03
55990;BME280;41875;55.806;38.082;2022-10-17T00:47:57;100513.88;;;7.21;53.18
55990;BME280;41875;55.806;38.082;2022-10-17T00:50:30;100513.19;;;6.82;54.62
55990;BME280;41875;55.806;38.082;2022-10-17T00:53:01;100512.81;;;6.99;53.98
55990;BME280;41875;55.806;38.082;2022-10-17T00:55:34;100503.09;;;6.76;54.74
55990;BME280;41875;55.806;38.082;2022-10-17T00:58:05;100495.63;;;6.69;55.17
55990;BME280;41875;55.806;38.082;2022-10-17T01:00:34;100487.66;;;6.58;55.53
55990;BME280;41875;55.806;38.082;2022-10-17T01:03:03;100485.91;;;6.83;54.64
55990;BME280;41875;55.806;38.082;2022-10-17T01:05:33;100477.22;;;7.18;53.79
55990;BME280;41875;55.806;38.082;2022-10-17T01:08:05;100477.63;;;6.63;54.99
55990;BME280;41875;55.806;38.082;2022-10-17T01:10:39;100480.13;;;6.78;54.72
55990;BME280;41875;55.806;38.082;2022-10-17T01:13:16;100477.72;;;6.99;54.41
55990;BME280;41875;55.806;38.082;2022-10-17T01:15:56;100466.19;;;7.48;53.09
55990;BME280;41875;55.806;38.082;2022-10-17T01:18:35;100464.88;;;7.54;53.03
55990;BME280;41875;55.806;38.082;2022-10-17T01:21:29;100460.31;;;6.85;54.85
55990;BME280;41875;55.806;38.082;2022-10-17T01:24:21;100469.03;;;6.85;54.92
55990;BME280;41875;55.806;38.082;2022-10-17T01:27:23;100447.97;;;7.10;54.16
55990;BME280;41875;55.806;38.082;2022-10-17T01:30:25;100443.69;;;7.20;54.03
55990;BME280;41875;55.806;38.082;2022-10-17T01:33:05;100446.00;;;6.76;55.08
55990;BME280;41875;55.806;38.082;2022-10-17T01:35:40;100446.50;;;7.06;54.61
55990;BME280;41875;55.806;38.082;2022-10-17T01:38:10;100442.81;;;6.84;55.03
55990;BME280;41875;55.806;38.082;2022-10-17T01:40:44;100438.25;;;7.46;53.16
55990;BME280;41875;55.806;38.082;2022-10-17T01:43:20;100442.75;;;6.97;54.26
55990;BME280;41875;55.806;38.082;2022-10-17T01:45:52;100434.91;;;7.08;54.23
55990;BME280;41875;55.806;38.082;2022-10-17T01:48:30;100425.56;;;6.80;54.70
55990;BME280;41875;55.806;38.082;2022-10-17T01:51:05;100424.59;;;7.05;54.40
55990;BME280;41875;55.806;38.082;2022-10-17T01:53:40;100420.41;;;6.78;54.90
55990;BME280;41875;55.806;38.082;2022-10-17T01:56:13;100417.84;;;7.01;54.67
55990;BME280;41875;55.806;38.082;2022-10-17T01:58:46;100418.59;;;6.79;55.20
55990;BME280;41875;55.806;38.082;2022-10-17T02:01:18;100415.88;;;6.80;55.03
55990;BME280;41875;55.806;38.082;2022-10-17T02:03:52;100407.88;;;7.17;54.08
55990;BME280;41875;55.806;38.082;2022-10-17T02:06:23;100402.16;;;7.24;53.74
55990;BME280;41875;55.806;38.082;2022-10-17T02:08:51;100410.69;;;7.03;54.22
55990;BME280;41875;55.806;38.082;2022-10-17T02:11:22;100405.63;;;7.00;54.44
55990;BME280;41875;55.806;38.082;2022-10-17T02:14:10;100400.16;;;6.79;55.23
55990;BME280;41875;55.806;38.082;2022-10-17T02:16:47;100407.16;;;6.91;54.58
55990;BME280;41875;55.806;38.082;2022-10-17T02:19:45;100401.50;;;6.84;54.38
55990;BME280;41875;55.806;38.082;2022-10-17T02:22:26;100404.69;;;7.01;54.42
55990;BME280;41875;55.806;38.082;2022-10-17T02:25:02;100394.66;;;7.06;54.04
55990;BME280;41875;55.806;38.082;2022-10-17T02:27:39;100389.91;;;6.87;54.60
55990;BME280;41875;55.806;38.082;2022-10-17T02:30:14;100383.81;;;7.33;53.31
55990;BME280;41875;55.806;38.082;2022-10-17T02:32:51;100394.25;;;6.64;54.88
55990;BME280;41875;55.806;38.082;2022-10-17T02:35:27;100389.91;;;6.87;54.90
55990;BME280;41875;55.806;38.082;2022-10-17T02:37:58;100394.50;;;6.72;54.60
55990;BME280;41875;55.806;38.082;2022-10-17T02:40:29;100396.44;;;7.06;53.83
55990;BME280;41875;55.806;38.082;2022-10-17T02:42:59;100382.47;;;6.81;54.72
55990;BME280;41875;55.806;38.082;2022-10-17T02:45:30;100373.66;;;6.93;54.25
55990;BME280;41875;55.806;38.082;2022-10-17T02:48:05;100378.66;;;6.61;55.20
55990;BME280;41875;55.806;38.082;2022-10-17T02:50:44;100385.25;;;6.42;56.01
55990;BME280;41875;55.806;38.082;2022-10-17T02:53:20;100374.13;;;6.87;54.86
55990;BME280;41875;55.806;38.082;2022-10-17T02:55:55;100381.47;;;6.70;55.03
55990;BME280;41875;55.806;38.082;2022-10-17T02:58:29;100374.91;;;6.52;55.11
55990;BME280;41875;55.806;38.082;2022-10-17T03:01:00;100374.88;;;7.00;54.21
55990;BME280;41875;55.806;38.082;2022-10-17T03:03:30;100368.94;;;7.21;53.73
55990;BME280;41875;55.806;38.082;2022-10-17T03:06:04;100379.13;;;6.90;54.39
55990;BME280;41875;55.806;38.082;2022-10-17T03:08:33;100369.63;;;7.00;54.16
55990;BME280;41875;55.806;38.082;2022-10-17T03:11:02;100368.72;;;6.89;54.29
55990;BME280;41875;55.806;38.082;2022-10-17T03:13:31;100355.97;;;6.71;54.70
55990;BME280;41875;55.806;38.082;2022-10-17T03:16:05;100357.06;;;6.80;54.54
55990;BME280;41875;55.806;38.082;2022-10-17T03:18:34;100357.41;;;6.99;54.36
55990;BME280;41875;55.806;38.082;2022-10-17T03:21:06;100363.06;;;6.82;54.74
55990;BME280;41875;55.806;38.082;2022-10-17T03:23:37;100352.31;;;7.21;53.65
55990;BME280;41875;55.806;38.082;2022-10-17T03:26:06;100348.59;;;7.23;53.28
55990;BME280;41875;55.806;38.082;2022-10-17T03:28:35;100350.13;;;7.14;53.75
55990;BME280;41875;55.806;38.082;2022-10-17T03:31:08;100346.41;;;6.81;54.59
55990;BME280;41875;55.806;38.082;2022-10-17T03:33:38;100348.88;;;6.96;54.35
55990;BME280;41875;55.806;38.082;2022-10-17T03:36:10;100334.00;;;7.30;53.26
55990;BME280;41875;55.806;38.082;2022-10-17T03:38:39;100342.69;;;7.08;53.70
55990;BME280;41875;55.806;38.082;2022-10-17T03:41:08;100328.00;;;7.28;53.40
55990;BME280;41875;55.806;38.082;2022-10-17T03:43:38;100338.03;;;7.23;53.46
55990;BME280;41875;55.806;38.082;2022-10-17T03:46:07;100321.28;;;7.36;53.16
55990;BME280;41875;55.806;38.082;2022-10-17T03:48:37;100314.81;;;6.81;54.38
55990;BME280;41875;55.806;38.082;2022-10-17T03:51:08;100310.94;;;7.10;53.56
55990;BME280;41875;55.806;38.082;2022-10-17T03:53:46;100282.94;;;6.62;54.81
55990;BME280;41875;55.806;38.082;2022-10-17T03:56:16;100309.84;;;7.01;54.21
55990;BME280;41875;55.806;38.082;2022-10-17T03:58:53;100296.00;;;7.33;53.49
55990;BME280;41875;55.806;38.082;2022-10-17T04:01:22;100293.84;;;7.61;52.49
55990;BME280;41875;55.806;38.082;2022-10-17T04:03:53;100299.22;;;7.03;53.73
55990;BME280;41875;55.806;38.082;2022-10-17T04:06:25;100289.31;;;7.40;52.93
55990;BME280;41875;55.806;38.082;2022-10-17T04:08:53;100285.47;;;7.33;53.45
55990;BME280;41875;55.806;38.082;2022-10-17T04:11:31;100286.84;;;6.80;54.60
55990;BME280;41875;55.806;38.082;2022-10-17T04:14:01;100283.66;;;7.22;53.72
55990;BME280;41875;55.806;38.082;2022-10-17T04:16:31;100295.59;;;7.04;54.30
55990;BME280;41875;55.806;38.082;2022-10-17T04:19:03;100292.97;;;7.04;54.41
55990;BME280;41875;55.806;38.082;2022-10-17T04:21:40;100290.28;;;7.39;53.59
55990;BME280;41875;55.806;38.082;2022-10-17T04:24:10;100291.78;;;7.19;53.59
55990;BME280;41875;55.806;38.082;2022-10-17T04:26:53;100285.31;;;7.00;54.26
55990;BME280;41875;55.806;38.082;2022-10-17T04:29:26;100283.44;;;7.25;53.78
55990;BME280;41875;55.806;38.082;2022-10-17T04:32:24;100266.56;;;7.39;53.34
55990;BME280;41875;55.806;38.082;2022-10-17T04:35:03;100262.69;;;7.21;53.85
55990;BME280;41875;55.806;38.082;2022-10-17T04:37:34;100271.94;;;7.38;53.36
55990;BME280;41875;55.806;38.082;2022-10-17T04:40:09;100269.66;;;7.33;53.28
55990;BME280;41875;55.806;38.082;2022-10-17T04:42:38;100282.91;;;7.09;54.02
55990;BME280;41875;55.806;38.082;2022-10-17T04:45:09;100271.69;;;7.52;52.60
55990;BME280;41875;55.806;38.082;2022-10-17T04:47:39;100270.97;;;7.61;52.50
55990;BME280;41875;55.806;38.082;2022-10-17T04:50:08;100251.81;;;7.48;52.92
55990;BME280;41875;55.806;38.082;2022-10-17T04:52:40;100249.88;;;7.61;52.43
55990;BME280;41875;55.806;38.082;2022-10-17T04:55:09;100260.28;;;7.74;52.18
55990;BME280;41875;55.806;38.082;2022-10-17T04:57:38;100249.78;;;7.52;52.92
55990;BME280;41875;55.806;38.082;2022-10-17T05:00:19;100243.91;;;8.03;51.85
55990;BME280;41875;55.806;38.082;2022-10-17T05:03:04;100239.22;;;8.07;51.19
55990;BME280;41875;55.806;38.082;2022-10-17T05:05:36;100244.56;;;8.28;51.00
55990;BME280;41875;55.806;38.082;2022-10-17T05:08:10;100244.09;;;8.23;51.02
55990;BME280;41875;55.806;38.082;2022-10-17T05:10:40;100234.00;;;8.28;51.05
55990;BME280;41875;55.806;38.082;2022-10-17T05:13:10;100228.19;;;8.34;50.99
55990;BME280;41875;55.806;38.082;2022-10-17T05:15:39;100230.41;;;8.29;50.77
55990;BME280;41875;55.806;38.082;2022-10-17T05:18:08;100230.09;;;8.11;51.24
55990;BME280;41875;55.806;38.082;2022-10-17T05:20:36;100226.19;;;8.27;51.43
55990;BME280;41875;55.806;38.082;2022-10-17T05:23:05;100227.81;;;8.50;50.29
55990;BME280;41875;55.806;38.082;2022-10-17T05:25:40;100226.25;;;8.48;50.46
55990;BME280;41875;55.806;38.082;2022-10-17T05:28:08;100227.88;;;8.28;51.05
55990;BME280;41875;55.806;38.082;2022-10-17T05:30:39;100231.63;;;8.46;50.46
55990;BME280;41875;55.806;38.082;2022-10-17T05:33:09;100224.91;;;8.96;49.21
55990;BME280;41875;55.806;38.082;2022-10-17T05:35:39;100217.63;;;8.34;51.01
55990;BME280;41875;55.806;38.082;2022-10-17T05:38:07;100208.34;;;8.19;51.39
55990;BME280;41875;55.806;38.082;2022-10-17T05:40:39;100202.72;;;8.23;51.82
55990;BME280;41875;55.806;38.082;2022-10-17T05:43:08;100197.53;;;8.22;51.87
55990;BME280;41875;55.806;38.082;2022-10-17T05:45:37;100191.16;;;8.24;51.95
55990;BME280;41875;55.806;38.082;2022-10-17T05:48:08;100188.88;;;7.99;52.02
55990;BME280;41875;55.806;38.082;2022-10-17T05:50:37;100190.03;;;8.38;51.37
55990;BME280;41875;55.806;38.082;2022-10-17T05:53:14;100185.41;;;7.98;52.01
55990;BME280;41875;55.806;38.082;2022-10-17T05:55:59;100189.28;;;8.48;51.24
55990;BME280;41875;55.806;38.082;2022-10-17T05:58:33;100191.91;;;7.94;52.22
55990;BME280;41875;55.806;38.082;2022-10-17T06:01:28;100206.91;;;8.47;50.88
55990;BME280;41875;55.806;38.082;2022-10-17T06:03:57;100198.13;;;8.26;51.40
55990;BME280;41875;55.806;38.082;2022-10-17T06:06:25;100199.41;;;8.64;50.49
55990;BME280;41875;55.806;38.082;2022-10-17T06:08:54;100189.41;;;8.67;50.51
55990;BME280;41875;55.806;38.082;2022-10-17T06:11:31;100193.03;;;9.28;48.67
55990;BME280;41875;55.806;38.082;2022-10-17T06:14:00;100179.16;;;9.05;49.21
55990;BME280;41875;55.806;38.082;2022-10-17T06:16:32;100175.59;;;8.85;49.87
55990;BME280;41875;55.806;38.082;2022-10-17T06:19:00;100180.03;;;9.06;49.20
55990;BME280;41875;55.806;38.082;2022-10-17T06:21:29;100165.19;;;8.83;49.84
55990;BME280;41875;55.806;38.082;2022-10-17T06:24:06;100169.91;;;8.90;49.44
55990;BME280;41875;55.806;38.082;2022-10-17T06:26:38;100170.75;;;9.21;49.09
55990;BME280;41875;55.806;38.082;2022-10-17T06:29:11;100186.34;;;9.95;47.26
55990;BME280;41875;55.806;38.082;2022-10-17T06:31:49;100164.31;;;9.65;47.45
55990;BME280;41875;55.806;38.082;2022-10-17T06:34:30;100163.88;;;9.59;48.39
55990;BME280;41875;55.806;38.082;2022-10-17T06:37:03;100157.91;;;10.16;46.45
55990;BME280;41875;55.806;38.082;2022-10-17T06:39:36;100173.25;;;10.03;47.02
55990;BME280;41875;55.806;38.082;2022-10-17T06:42:11;100165.59;;;10.49;46.11
55990;BME280;41875;55.806;38.082;2022-10-17T06:45:07;100157.34;;;9.64;48.01
55990;BME280;41875;55.806;38.082;2022-10-17T06:48:02;100165.94;;;9.46;48.52
55990;BME280;41875;55.806;38.082;2022-10-17T06:50:42;100170.97;;;9.49;48.38
55990;BME280;41875;55.806;38.082;2022-10-17T06:53:23;100163.78;;;9.20;48.89
55990;BME280;41875;55.806;38.082;2022-10-17T06:56:28;100163.50;;;9.23;49.35
55990;BME280;41875;55.806;38.082;2022-10-17T06:59:17;100155.28;;;9.17;49.02
55990;BME280;41875;55.806;38.082;2022-10-17T07:01:59;100159.13;;;9.43;48.69
55990;BME280;41875;55.806;38.082;2022-10-17T07:04:29;100147.78;;;9.82;47.63
55990;BME280;41875;55.806;38.082;2022-10-17T07:06:58;100132.84;;;10.01;47.13
55990;BME280;41875;55.806;38.082;2022-10-17T07:09:31;100128.66;;;10.18;46.91
55990;BME280;41875;55.806;38.082;2022-10-17T07:11:59;100122.22;;;10.50;47.20
55990;BME280;41875;55.806;38.082;2022-10-17T07:14:29;100123.91;;;10.21;46.68
55990;BME280;41875;55.806;38.082;2022-10-17T07:16:59;100133.13;;;9.58;48.06
55990;BME280;41875;55.806;38.082;2022-10-17T07:19:30;100134.94;;;9.77;47.89
55990;BME280;41875;55.806;38.082;2022-10-17T07:21:59;100142.03;;;10.06;47.42
55990;BME280;41875;55.806;38.082;2022-10-17T07:24:29;100128.19;;;10.62;46.27
55990;BME280;41875;55.806;38.082;2022-10-17T07:27:06;100117.94;;;11.15;44.87
55990;BME280;41875;55.806;38.082;2022-10-17T07:29:36;100118.19;;;10.36;46.62
55990;BME280;41875;55.806;38.082;2022-10-17T07:32:17;100105.13;;;10.15;47.37
55990;BME280;41875;55.806;38.082;2022-10-17T07:34:46;100107.47;;;10.75;45.74
55990;BME280;41875;55.806;38.082;2022-10-17T07:37:15;100113.47;;;10.77;46.27
55990;BME280;41875;55.806;38.082;2022-10-17T07:39:50;100115.53;;;10.56;46.03
55990;BME280;41875;55.806;38.082;2022-10-17T07:42:19;100098.25;;;10.22;46.84
55990;BME280;41875;55.806;38.082;2022-10-17T07:44:50;100106.38;;;10.11;47.32
55990;BME280;41875;55.806;38.082;2022-10-17T07:47:19;100101.41;;;11.49;44.26
55990;BME280;41875;55.806;38.082;2022-10-17T07:49:49;100093.41;;;10.75;45.93
55990;BME280;41875;55.806;38.082;2022-10-17T07:52:17;100094.16;;;10.57;45.94
55990;BME280;41875;55.806;38.082;2022-10-17T07:54:46;100105.88;;;10.64;45.96
55990;BME280;41875;55.806;38.082;2022-10-17T07:57:14;100089.47;;;10.31;46.44
55990;BME280;41875;55.806;38.082;2022-10-17T07:59:43;100098.94;;;10.91;45.66
55990;BME280;41875;55.806;38.082;2022-10-17T08:02:14;100092.78;;;11.19;45.08
55990;BME280;41875;55.806;38.082;2022-10-17T08:04:46;100081.25;;;11.10;45.21
55990;BME280;41875;55.806;38.082;2022-10-17T08:07:14;100103.25;;;10.92;45.73
55990;BME280;41875;55.806;38.082;2022-10-17T08:09:52;100093.88;;;10.98;45.70
55990;BME280;41875;55.806;38.082;2022-10-17T08:12:24;100079.13;;;11.13;45.44
55990;BME280;41875;55.806;38.082;2022-10-17T08:14:53;100081.63;;;10.87;45.85
55990;BME280;41875;55.806;38.082;2022-10-17T08:17:23;100079.69;;;10.89;46.00
55990;BME280;41875;55.806;38.082;2022-10-17T08:19:52;100071.00;;;10.69;46.48
55990;BME280;41875;55.806;38.082;2022-10-17T08:22:20;100079.66;;;10.61;46.79
55990;BME280;41875;55.806;38.082;2022-10-17T08:24:49;100084.94;;;10.71;46.42
55990;BME280;41875;55.806;38.082;2022-10-17T08:27:17;100090.97;;;10.63;47.14
55990;BME280;41875;55.806;38.082;2022-10-17T08:29:50;100079.31;;;10.74;46.89
55990;BME280;41875;55.806;38.082;2022-10-17T08:32:21;100074.78;;;10.94;46.75
55990;BME280;41875;55.806;38.082;2022-10-17T08:34:52;100073.19;;;10.74;47.68
55990;BME280;41875;55.806;38.082;2022-10-17T08:37:21;100072.06;;;10.76;48.80
55990;BME280;41875;55.806;38.082;2022-10-17T08:39:50;100066.44;;;10.51;49.73
55990;BME280;41875;55.806;38.082;2022-10-17T08:42:37;100067.97;;;9.77;53.74
55990;BME280;41875;55.806;38.082;2022-10-17T08:45:14;100078.97;;;9.82;53.80
55990;BME280;41875;55.806;38.082;2022-10-17T08:47:45;100100.91;;;9.24;55.95
55990;BME280;41875;55.806;38.082;2022-10-17T08:50:23;100097.03;;;9.38;56.22
55990;BME280;41875;55.806;38.082;2022-10-17T08:52:56;100097.31;;;9.54;55.79
55990;BME280;41875;55.806;38.082;2022-10-17T08:55:31;100088.56;;;9.54;56.98
55990;BME280;41875;55.806;38.082;2022-10-17T08:58:00;100097.41;;;9.23;57.96
55990;BME280;41875;55.806;38.082;2022-10-17T09:00:30;100091.44;;;9.31;57.53
55990;BME280;41875;55.806;38.082;2022-10-17T09:03:10;100090.78;;;9.49;57.83
55990;BME280;41875;55.806;38.082;2022-10-17T09:05:49;100076.31;;;9.63;57.53
55990;BME280;41875;55.806;38.082;2022-10-17T09:08:31;100061.81;;;9.96;56.51
55990;BME280;41875;55.806;38.082;2022-10-17T09:11:09;100056.53;;;9.86;56.98
55990;BME280;41875;55.806;38.082;2022-10-17T09:13:53;100046.66;;;9.69;57.24
55990;BME280;41875;55.806;38.082;2022-10-17T09:16:48;100050.69;;;9.93;57.05
55990;BME280;41875;55.806;38.082;2022-10-17T09:19:24;100074.63;;;10.01;55.77
55990;BME280;41875;55.806;38.082;2022-10-17T09:21:58;100073.25;;;9.97;56.17
55990;BME280;41875;55.806;38.082;2022-10-17T09:24:37;100075.91;;;9.67;56.69
55990;BME280;41875;55.806;38.082;2022-10-17T09:27:10;100071.00;;;10.02;55.93
55990;BME280;41875;55.806;38.082;2022-10-17T09:29:45;100072.25;;;9.49;58.42
55990;BME280;41875;55.806;38.082;2022-10-17T09:32:18;100052.78;;;9.30;59.65
55990;BME280;41875;55.806;38.082;2022-10-17T09:34:50;100025.31;;;8.92;60.96
55990;BME280;41875;55.806;38.082;2022-10-17T09:37:27;100028.38;;;8.97;61.47
55990;BME280;41875;55.806;38.082;2022-10-17T09:39:57;100039.22;;;8.94;62.15
55990;BME280;41875;55.806;38.082;2022-10-17T09:42:25;100025.16;;;8.83;62.82
55990;BME280;41875;55.806;38.082;2022-10-17T09:45:02;100039.03;;;8.76;62.94
55990;BME280;41875;55.806;38.082;2022-10-17T09:47:42;100053.88;;;8.67;64.10
55990;BME280;41875;55.806;38.082;2022-10-17T09:50:19;100072.78;;;8.72;64.68
55990;BME280;41875;55.806;38.082;2022-10-17T09:52:51;100073.78;;;8.81;65.69
55990;BME280;41875;55.806;38.082;2022-10-17T09:55:28;100055.34;;;8.91;65.42
55990;BME280;41875;55.806;38.082;2022-10-17T09:58:00;100061.88;;;8.96;66.56
55990;BME280;41875;55.806;38.082;2022-10-17T10:00:30;100026.50;;;9.48;64.62
55990;BME280;41875;55.806;38.082;2022-10-17T10:03:17;100020.16;;;10.08;62.82
55990;BME280;41875;55.806;38.082;2022-10-17T10:06:01;100032.72;;;9.27;65.36
55990;BME280;41875;55.806;38.082;2022-10-17T10:08:33;100026.34;;;9.50;65.03
55990;BME280;41875;55.806;38.082;2022-10-17T10:11:04;100036.34;;;9.07;65.98
55990;BME280;41875;55.806;38.082;2022-10-17T10:13:35;100019.09;;;9.32;65.64
55990;BME280;41875;55.806;38.082;2022-10-17T10:16:16;100016.19;;;9.45;65.11
55990;BME280;41875;55.806;38.082;2022-10-17T10:18:45;100003.78;;;9.75;64.42
55990;BME280;41875;55.806;38.082;2022-10-17T10:21:19;100005.75;;;9.34;64.83
55990;BME280;41875;55.806;38.082;2022-10-17T10:24:11;100013.38;;;9.07;66.94
55990;BME280;41875;55.806;38.082;2022-10-17T10:26:43;100013.63;;;8.94;66.44
55990;BME280;41875;55.806;38.082;2022-10-17T10:29:26;99994.03;;;8.97;65.81
55990;BME280;41875;55.806;38.082;2022-10-17T10:32:06;99993.63;;;9.31;65.32
55990;BME280;41875;55.806;38.082;2022-10-17T10:34:40;99980.13;;;9.44;64.67
55990;BME280;41875;55.806;38.082;2022-10-17T10:37:17;99972.56;;;9.69;64.16
55990;BME280;41875;55.806;38.082;2022-10-17T10:39:50;99983.88;;;9.61;64.51
55990;BME280;41875;55.806;38.082;2022-10-17T10:42:25;99982.91;;;9.62;64.20
55990;BME280;41875;55.806;38.082;2022-10-17T10:44:58;99968.31;;;9.58;64.92
55990;BME280;41875;55.806;38.082;2022-10-17T10:47:30;99964.81;;;9.48;64.89
55990;BME280;41875;55.806;38.082;2022-10-17T10:50:20;99963.28;;;8.96;66.28
55990;BME280;41875;55.806;38.082;2022-10-17T10:53:06;99965.22;;;9.63;64.89
55990;BME280;41875;55.806;38.082;2022-10-17T10:55:41;99961.97;;;9.79;63.85
55990;BME280;41875;55.806;38.082;2022-10-17T10:58:22;99970.94;;;9.68;64.12
55990;BME280;41875;55.806;38.082;2022-10-17T11:00:54;99970.69;;;9.51;64.31
55990;BME280;41875;55.806;38.082;2022-10-17T11:03:28;99976.50;;;9.45;65.14
55990;BME280;41875;55.806;38.082;2022-10-17T11:06:02;99981.22;;;9.61;64.84
55990;BME280;41875;55.806;38.082;2022-10-17T11:08:36;99969.97;;;9.20;66.61
55990;BME280;41875;55.806;38.082;2022-10-17T11:11:13;99951.75;;;8.87;67.06
55990;BME280;41875;55.806;38.082;2022-10-17T11:13:48;99948.41;;;9.24;65.32
55990;BME280;41875;55.806;38.082;2022-10-17T11:16:28;99954.00;;;9.21;65.78
55990;BME280;41875;55.806;38.082;2022-10-17T11:19:07;99945.34;;;8.99;66.53
55990;BME280;41875;55.806;38.082;2022-10-17T11:21:44;99952.88;;;9.24;65.24
55990;BME280;41875;55.806;38.082;2022-10-17T11:24:21;99956.38;;;9.14;66.03
55990;BME280;41875;55.806;38.082;2022-10-17T11:26:56;99948.97;;;9.28;65.65
55990;BME280;41875;55.806;38.082;2022-10-17T11:29:28;99950.38;;;9.12;65.98
55990;BME280;41875;55.806;38.082;2022-10-17T11:31:59;99950.34;;;9.52;64.79
55990;BME280;41875;55.806;38.082;2022-10-17T11:34:32;99929.41;;;9.78;63.88
55990;BME280;41875;55.806;38.082;2022-10-17T11:37:11;99938.84;;;9.90;63.35
55990;BME280;41875;55.806;38.082;2022-10-17T11:39:43;99943.44;;;9.21;65.49
55990;BME280;41875;55.806;38.082;2022-10-17T11:42:20;99952.13;;;9.61;64.37
55990;BME280;41875;55.806;38.082;2022-10-17T11:44:58;99943.97;;;9.92;63.29
55990;BME280;41875;55.806;38.082;2022-10-17T11:47:35;99936.13;;;9.63;63.89
55990;BME280;41875;55.806;38.082;2022-10-17T11:50:17;99938.84;;;9.90;63.25
55990;BME280;41875;55.806;38.082;2022-10-17T11:53:10;99930.34;;;9.97;63.29
55990;BME280;41875;55.806;38.082;2022-10-17T11:55:41;99926.59;;;9.89;63.23
55990;BME280;41875;55.806;38.082;2022-10-17T11:58:26;99923.22;;;9.97;63.50
55990;BME280;41875;55.806;38.082;2022-10-17T12:01:06;99916.84;;;9.90;64.12
55990;BME280;41875;55.806;38.082;2022-10-17T12:03:50;99910.63;;;10.37;61.89
55990;BME280;41875;55.806;38.082;2022-10-17T12:06:29;99908.00;;;9.61;63.98
55990;BME280;41875;55.806;38.082;2022-10-17T12:09:04;99912.66;;;9.30;65.61
55990;BME280;41875;55.806;38.082;2022-10-17T12:11:41;99906.44;;;9.69;65.29
55990;BME280;41875;55.806;38.082;2022-10-17T12:14:41;99900.63;;;10.03;63.95
55990;BME280;41875;55.806;38.082;2022-10-17T12:17:30;99899.50;;;9.68;65.30
55990;BME280;41875;55.806;38.082;2022-10-17T12:20:25;99895.03;;;10.06;64.23
55990;BME280;41875;55.806;38.082;2022-10-17T12:22:56;99893.56;;;10.21;63.77
55990;BME280;41875;55.806;38.082;2022-10-17T12:25:28;99895.88;;;9.69;64.94
55990;BME280;41875;55.806;38.082;2022-10-17T12:28:10;99901.34;;;9.38;66.62
55990;BME280;41875;55.806;38.082;2022-10-17T12:30:59;99897.44;;;9.52;66.03
55990;BME280;41875;55.806;38.082;2022-10-17T12:33:32;99886.00;;;9.61;66.08
55990;BME280;41875;55.806;38.082;2022-10-17T12:39:41;99882.63;;;10.06;65.03
55990;BME280;41875;55.806;38.082;2022-10-17T12:42:48;99890.25;;;9.82;65.81
55990;BME280;41875;55.806;38.082;2022-10-17T12:45:47;99912.19;;;10.02;65.07
55990;BME280;41875;55.806;38.082;2022-10-17T12:51:27;99895.38;;;10.21;63.75
55990;BME280;41875;55.806;38.082;2022-10-17T12:54:09;99911.88;;;9.77;65.84
55990;BME280;41875;55.806;38.082;2022-10-17T12:56:40;99916.28;;;10.24;64.26
55990;BME280;41875;55.806;38.082;2022-10-17T12:59:13;99919.91;;;10.23;64.03
55990;BME280;41875;55.806;38.082;2022-10-17T13:01:45;99917.88;;;9.69;66.29
55990;BME280;41875;55.806;38.082;2022-10-17T13:04:15;99912.78;;;9.96;65.30
55990;BME280;41875;55.806;38.082;2022-10-17T13:06:47;99940.03;;;10.06;65.46
55990;BME280;41875;55.806;38.082;2022-10-17T13:09:23;99950.13;;;10.30;63.93
55990;BME280;41875;55.806;38.082;2022-10-17T13:11:54;99959.84;;;10.30;64.16
55990;BME280;41875;55.806;38.082;2022-10-17T13:14:25;99968.38;;;9.96;65.44
55990;BME280;41875;55.806;38.082;2022-10-17T13:16:55;99968.38;;;10.33;64.59
55990;BME280;41875;55.806;38.082;2022-10-17T13:19:28;99982.31;;;10.35;64.21
55990;BME280;41875;55.806;38.082;2022-10-17T13:22:00;99980.59;;;10.44;63.96
55990;BME280;41875;55.806;38.082;2022-10-17T13:24:34;99965.97;;;10.68;62.88
55990;BME280;41875;55.806;38.082;2022-10-17T13:27:04;99974.47;;;10.44;64.12
55990;BME280;41875;55.806;38.082;2022-10-17T13:29:33;99964.06;;;10.60;63.53
55990;BME280;41875;55.806;38.082;2022-10-17T13:32:03;99982.03;;;10.29;64.62
55990;BME280;41875;55.806;38.082;2022-10-17T13:34:32;99978.56;;;10.28;64.71